sensor_id;sensor_type;location;lat;lon;timestamp;pressure;altitude;pressure_sealevel;temperature;humidity
21588;BME280;10956;48.878;13.316;2023-03-31T00:01:48;93783.81;;;5.61;100.00
21588;BME280;10956;48.878;13.316;2023-03-31T00:04:16;93784.25;;;5.53;100.00
21588;BME280;10956;48.878;13.316;2023-03-31T00:06:42;93780.00;;;5.46;100.00
21588;BME280;10956;48.878;13.316;2023-03-31T00:09:17;93777.31;;;5.41;100.00
21588;BME280;10956;48.878;13.316;2023-03-31T00:11:47;93777.31;;;5.41;100.00
21588;BME280;10956;48.878;13.316;2023-03-31T00:14:12;93767.97;;;5.45;100.00
21588;BME280;10956;48.878;13.316;2023-03-31T00:16:39;93770.56;;;5.45;100.00
21588;BME280;10956;48.878;13.316;2023-03-31T00:19:05;93763.53;;;5.46;100.00
21588;BME280;10956;48.878;13.316;2023-03-31T00:21:34;93764.56;;;5.45;100.00
21588;BME280;10956;48.878;13.316;2023-03-31T00:24:08;93750.16;;;5.42;100.00
21588;BME280;10956;48.878;13.316;2023-03-31T00:26:34;93755.19;;;5.49;100.00
21588;BME280;10956;48.878;13.316;2023-03-31T00:29:01;93746.06;;;5.51;100.00
21588;BME280;10956;48.878;13.316;2023-03-31T00:31:27;93730.34;;;5.46;100.00
21588;BME280;10956;48.878;13.316;2023-03-31T00:33:53;93719.69;;;5.53;100.00
21588;BME280;10956;48.878;13.316;2023-03-31T00:36:19;93717.31;;;5.51;100.00
21588;BME280;10956;48.878;13.316;2023-03-31T00:38:55;93710.41;;;5.40;100.00
21588;BME280;10956;48.878;13.316;2023-03-31T00:41:25;93715.09;;;5.38;100.00
21588;BME280;10956;48.878;13.316;2023-03-31T00:44:19;93711.09;;;5.31;100.00
21588;BME280;10956;48.878;13.316;2023-03-31T00:51:51;93700.16;;;5.34;100.00
21588;BME280;10956;48.878;13.316;2023-03-31T00:54:18;93692.50;;;5.27;100.00
21588;BME280;10956;48.878;13.316;2023-03-31T00:56:47;93694.13;;;5.33;100.00
21588;BME280;10956;48.878;13.316;2023-03-31T00:59:14;93699.34;;;5.33;100.00
21588;BME280;10956;48.878;13.316;2023-03-31T01:01:43;93692.81;;;5.31;100.00
21588;BME280;10956;48.878;13.316;2023-03-31T01:04:11;93696.16;;;5.26;100.00
21588;BME280;10956;48.878;13.316;2023-03-31T01:06:46;93695.59;;;5.24;100.00
21588;BME280;10956;48.878;13.316;2023-03-31T01:09:15;93691.09;;;5.19;100.00
21588;BME280;10956;48.878;13.316;2023-03-31T01:11:43;93699.94;;;5.13;100.00
21588;BME280;10956;48.878;13.316;2023-03-31T01:14:10;93692.34;;;5.12;100.00
21588;BME280;10956;48.878;13.316;2023-03-31T01:16:36;93690.75;;;5.11;100.00
21588;BME280;10956;48.878;13.316;2023-03-31T01:19:06;93686.00;;;5.08;100.00
21588;BME280;10956;48.878;13.316;2023-03-31T01:41:37;93663.66;;;5.17;100.00
21588;BME280;10956;48.878;13.316;2023-03-31T01:46:49;93671.16;;;5.35;100.00
21588;BME280;10956;48.878;13.316;2023-03-31T01:49:25;93653.53;;;5.47;100.00
21588;BME280;10956;48.878;13.316;2023-03-31T01:52:02;93658.25;;;5.50;100.00
21588;BME280;10956;48.878;13.316;2023-03-31T01:54:46;93655.16;;;5.54;100.00
21588;BME280;10956;48.878;13.316;2023-03-31T01:57:19;93653.91;;;5.61;100.00
21588;BME280;10956;48.878;13.316;2023-03-31T02:00:07;93651.34;;;5.66;100.00
21588;BME280;10956;48.878;13.316;2023-03-31T02:02:47;93645.41;;;5.76;100.00
21588;BME280;10956;48.878;13.316;2023-03-31T02:05:24;93651.22;;;5.83;100.00
21588;BME280;10956;48.878;13.316;2023-03-31T02:07:56;93656.81;;;5.92;100.00
21588;BME280;10956;48.878;13.316;2023-03-31T02:10:24;93650.34;;;5.99;100.00
21588;BME280;10956;48.878;13.316;2023-03-31T02:12:52;93651.63;;;5.97;100.00
21588;BME280;10956;48.878;13.316;2023-03-31T02:15:26;93651.91;;;6.00;100.00
21588;BME280;10956;48.878;13.316;2023-03-31T02:17:55;93652.69;;;6.01;100.00
21588;BME280;10956;48.878;13.316;2023-03-31T02:20:23;93640.16;;;6.03;100.00
21588;BME280;10956;48.878;13.316;2023-03-31T02:22:55;93637.25;;;5.99;100.00
21588;BME280;10956;48.878;13.316;2023-03-31T02:25:26;93629.94;;;6.01;100.00
21588;BME280;10956;48.878;13.316;2023-03-31T02:27:58;93624.75;;;6.06;100.00
21588;BME280;10956;48.878;13.316;2023-03-31T02:30:34;93619.31;;;6.13;100.00
21588;BME280;10956;48.878;13.316;2023-03-31T02:33:01;93610.41;;;6.14;100.00
21588;BME280;10956;48.878;13.316;2023-03-31T02:35:29;93597.09;;;6.15;100.00
21588;BME280;10956;48.878;13.316;2023-03-31T02:37:55;93603.38;;;6.20;100.00
21588;BME280;10956;48.878;13.316;2023-03-31T02:40:23;93595.53;;;6.20;100.00
21588;BME280;10956;48.878;13.316;2023-03-31T02:42:52;93587.19;;;6.23;100.00
21588;BME280;10956;48.878;13.316;2023-03-31T02:48:06;93579.88;;;6.25;100.00
21588;BME280;10956;48.878;13.316;2023-03-31T02:50:57;93564.19;;;6.30;100.00
21588;BME280;10956;48.878;13.316;2023-03-31T02:59:31;93553.75;;;6.35;100.00
21588;BME280;10956;48.878;13.316;2023-03-31T03:02:12;93562.16;;;6.37;100.00
21588;BME280;10956;48.878;13.316;2023-03-31T03:07:46;93564.75;;;6.32;100.00
21588;BME280;10956;48.878;13.316;2023-03-31T03:10:19;93557.94;;;6.31;100.00
21588;BME280;10956;48.878;13.316;2023-03-31T03:13:23;93552.19;;;6.34;100.00
21588;BME280;10956;48.878;13.316;2023-03-31T03:16:13;93543.84;;;6.42;100.00
21588;BME280;10956;48.878;13.316;2023-03-31T03:18:44;93550.63;;;6.38;100.00
21588;BME280;10956;48.878;13.316;2023-03-31T03:21:09;93557.94;;;6.31;100.00
21588;BME280;10956;48.878;13.316;2023-03-31T03:23:34;93558.97;;;6.30;100.00
21588;BME280;10956;48.878;13.316;2023-03-31T03:26:00;93552.44;;;6.32;100.00
21588;BME280;10956;48.878;13.316;2023-03-31T03:28:25;93541.94;;;6.27;100.00
21588;BME280;10956;48.878;13.316;2023-03-31T03:30:51;93555.28;;;6.26;100.00
21588;BME280;10956;48.878;13.316;2023-03-31T03:33:17;93531.75;;;6.26;100.00
21588;BME280;10956;48.878;13.316;2023-03-31T03:35:43;93537.47;;;6.23;100.00
21588;BME280;10956;48.878;13.316;2023-03-31T03:38:08;93536.44;;;6.24;100.00
21588;BME280;10956;48.878;13.316;2023-03-31T03:40:34;93535.41;;;6.25;100.00
21588;BME280;10956;48.878;13.316;2023-03-31T03:42:59;93529.09;;;6.21;100.00
21588;BME280;10956;48.878;13.316;2023-03-31T03:45:24;93528.06;;;6.22;100.00
21588;BME280;10956;48.878;13.316;2023-03-31T03:47:50;93522.81;;;6.22;100.00
21588;BME280;10956;48.878;13.316;2023-03-31T03:50:15;93521.25;;;6.21;100.00
21588;BME280;10956;48.878;13.316;2023-03-31T03:52:41;93524.94;;;6.25;100.00
21588;BME280;10956;48.878;13.316;2023-03-31T03:55:06;93524.69;;;6.26;100.00
21588;BME280;10956;48.878;13.316;2023-03-31T03:57:32;93528.09;;;6.32;100.00
21588;BME280;10956;48.878;13.316;2023-03-31T03:59:57;93522.09;;;6.36;100.00
21588;BME280;10956;48.878;13.316;2023-03-31T04:02:23;93521.84;;;6.38;100.00
21588;BME280;10956;48.878;13.316;2023-03-31T04:04:48;93515.31;;;6.40;100.00
21588;BME280;10956;48.878;13.316;2023-03-31T04:07:14;93512.44;;;6.42;100.00
21588;BME280;10956;48.878;13.316;2023-03-31T04:09:39;93506.69;;;6.45;100.00
21588;BME280;10956;48.878;13.316;2023-03-31T04:12:05;93497.22;;;6.29;100.00
21588;BME280;10956;48.878;13.316;2023-03-31T04:14:30;93498.69;;;6.09;100.00
21588;BME280;10956;48.878;13.316;2023-03-31T04:16:55;93479.84;;;6.07;100.00
21588;BME280;10956;48.878;13.316;2023-03-31T04:19:22;93488.25;;;6.09;100.00
21588;BME280;10956;48.878;13.316;2023-03-31T04:21:50;93467.84;;;6.11;100.00
21588;BME280;10956;48.878;13.316;2023-03-31T04:24:24;93469.44;;;6.18;100.00
21588;BME280;10956;48.878;13.316;2023-03-31T04:26:57;93467.59;;;6.13;100.00
21588;BME280;10956;48.878;13.316;2023-03-31T04:29:23;93468.94;;;6.21;100.00
21588;BME280;10956;48.878;13.316;2023-03-31T04:31:51;93472.34;;;6.26;100.00
21588;BME280;10956;48.878;13.316;2023-03-31T04:34:18;93464.25;;;6.28;100.00
21588;BME280;10956;48.878;13.316;2023-03-31T04:36:45;93471.31;;;6.27;100.00
21588;BME280;10956;48.878;13.316;2023-03-31T04:39:16;93463.72;;;6.31;100.00
21588;BME280;10956;48.878;13.316;2023-03-31T04:41:42;93458.25;;;6.37;100.00
21588;BME280;10956;48.878;13.316;2023-03-31T04:44:08;93452.00;;;6.43;100.00
21588;BME280;10956;48.878;13.316;2023-03-31T04:46:34;93445.72;;;6.44;100.00
21588;BME280;10956;48.878;13.316;2023-03-31T04:48:59;93449.13;;;6.45;100.00
21588;BME280;10956;48.878;13.316;2023-03-31T04:51:26;93431.84;;;6.44;100.00
21588;BME280;10956;48.878;13.316;2023-03-31T04:53:51;93436.81;;;6.40;100.00
21588;BME280;10956;48.878;13.316;2023-03-31T04:56:16;93426.09;;;6.42;100.00
21588;BME280;10956;48.878;13.316;2023-03-31T04:58:42;93425.56;;;6.45;100.00
21588;BME280;10956;48.878;13.316;2023-03-31T05:01:08;93420.06;;;6.46;100.00
21588;BME280;10956;48.878;13.316;2023-03-31T05:03:37;93415.63;;;6.47;100.00
21588;BME280;10956;48.878;13.316;2023-03-31T05:06:03;93416.16;;;6.49;100.00
21588;BME280;10956;48.878;13.316;2023-03-31T05:08:28;93413.00;;;6.47;100.00
21588;BME280;10956;48.878;13.316;2023-03-31T05:10:54;93414.84;;;6.46;100.00
21588;BME280;10956;48.878;13.316;2023-03-31T05:13:19;93412.47;;;6.45;100.00
21588;BME280;10956;48.878;13.316;2023-03-31T05:15:45;93409.09;;;6.50;100.00
21588;BME280;10956;48.878;13.316;2023-03-31T05:18:12;93409.63;;;6.52;100.00
21588;BME280;10956;48.878;13.316;2023-03-31T05:20:37;93406.22;;;6.56;100.00
21588;BME280;10956;48.878;13.316;2023-03-31T05:23:03;93408.31;;;6.64;100.00
21588;BME280;10956;48.878;13.316;2023-03-31T05:25:28;93411.22;;;6.73;100.00
21588;BME280;10956;48.878;13.316;2023-03-31T05:27:57;93419.34;;;6.76;100.00
21588;BME280;10956;48.878;13.316;2023-03-31T05:30:24;93424.31;;;6.73;100.00
21588;BME280;10956;48.878;13.316;2023-03-31T05:32:51;93413.31;;;6.66;100.00
21588;BME280;10956;48.878;13.316;2023-03-31T05:35:16;93406.50;;;6.65;100.00
21588;BME280;10956;48.878;13.316;2023-03-31T05:37:42;93403.09;;;6.69;100.00
21588;BME280;10956;48.878;13.316;2023-03-31T05:40:08;93397.09;;;6.79;100.00
21588;BME280;10956;48.878;13.316;2023-03-31T05:42:34;93399.44;;;6.80;100.00
21588;BME280;10956;48.878;13.316;2023-03-31T05:44:59;93391.84;;;6.79;100.00
21588;BME280;10956;48.878;13.316;2023-03-31T05:47:24;93393.69;;;6.73;100.00
21588;BME280;10956;48.878;13.316;2023-03-31T05:49:50;93386.09;;;6.77;100.00
21588;BME280;10956;48.878;13.316;2023-03-31T05:52:16;93379.03;;;6.83;100.00
21588;BME280;10956;48.878;13.316;2023-03-31T05:54:41;93369.06;;;6.95;100.00
21588;BME280;10956;48.878;13.316;2023-03-31T05:57:08;93363.28;;;7.08;100.00
21588;BME280;10956;48.878;13.316;2023-03-31T05:59:34;93353.06;;;7.22;100.00
21588;BME280;10956;48.878;13.316;2023-03-31T06:02:01;93351.72;;;7.34;100.00
21588;BME280;10956;48.878;13.316;2023-03-31T06:04:27;93336.78;;;7.35;100.00
21588;BME280;10956;48.878;13.316;2023-03-31T06:06:52;93336.53;;;7.31;100.00
21588;BME280;10956;48.878;13.316;2023-03-31T06:09:18;93345.16;;;7.37;100.00
21588;BME280;10956;48.878;13.316;2023-03-31T06:11:44;93342.78;;;7.45;100.00
21588;BME280;10956;48.878;13.316;2023-03-31T06:14:10;93346.97;;;7.47;100.00
21588;BME280;10956;48.878;13.316;2023-03-31T06:16:35;93344.34;;;7.47;100.00
21588;BME280;10956;48.878;13.316;2023-03-31T06:19:01;93328.09;;;7.50;100.00
21588;BME280;10956;48.878;13.316;2023-03-31T06:21:26;93334.91;;;7.45;100.00
21588;BME280;10956;48.878;13.316;2023-03-31T06:23:52;93322.31;;;7.53;100.00
21588;BME280;10956;48.878;13.316;2023-03-31T06:26:20;93313.41;;;7.54;100.00
21588;BME280;10956;48.878;13.316;2023-03-31T06:28:47;93310.25;;;7.57;100.00
21588;BME280;10956;48.878;13.316;2023-03-31T06:31:15;93306.34;;;7.49;100.00
21588;BME280;10956;48.878;13.316;2023-03-31T06:33:42;93303.19;;;7.47;100.00
21588;BME280;10956;48.878;13.316;2023-03-31T06:36:08;93290.84;;;7.58;100.00
21588;BME280;10956;48.878;13.316;2023-03-31T06:38:35;93279.50;;;7.72;100.00
21588;BME280;10956;48.878;13.316;2023-03-31T06:41:02;93274.50;;;7.76;100.00
21588;BME280;10956;48.878;13.316;2023-03-31T06:43:28;93276.06;;;7.77;100.00
21588;BME280;10956;48.878;13.316;2023-03-31T06:45:54;93269.25;;;7.76;100.00
21588;BME280;10956;48.878;13.316;2023-03-31T06:48:21;93263.00;;;7.67;100.00
21588;BME280;10956;48.878;13.316;2023-03-31T06:50:47;93256.69;;;7.68;100.00
21588;BME280;10956;48.878;13.316;2023-03-31T06:53:12;93262.97;;;7.72;100.00
21588;BME280;10956;48.878;13.316;2023-03-31T06:55:38;93259.53;;;7.76;100.00
21588;BME280;10956;48.878;13.316;2023-03-31T06:58:04;93253.50;;;7.81;100.00
21588;BME280;10956;48.878;13.316;2023-03-31T07:00:30;93252.19;;;7.78;100.00
21588;BME280;10956;48.878;13.316;2023-03-31T07:02:55;93250.31;;;7.84;100.00
21588;BME280;10956;48.878;13.316;2023-03-31T07:05:21;93256.34;;;7.85;100.00
21588;BME280;10956;48.878;13.316;2023-03-31T07:07:55;93254.53;;;7.80;100.00
21588;BME280;10956;48.878;13.316;2023-03-31T07:10:22;93253.28;;;7.72;100.00
21588;BME280;10956;48.878;13.316;2023-03-31T07:12:48;93258.28;;;7.69;100.00
21588;BME280;10956;48.878;13.316;2023-03-31T07:15:14;93240.47;;;7.66;100.00
21588;BME280;10956;48.878;13.316;2023-03-31T07:17:40;93243.09;;;7.61;100.00
21588;BME280;10956;48.878;13.316;2023-03-31T07:20:10;93232.09;;;7.59;100.00
21588;BME280;10956;48.878;13.316;2023-03-31T07:22:37;93220.03;;;7.58;100.00
21588;BME280;10956;48.878;13.316;2023-03-31T07:25:03;93218.22;;;7.53;100.00
21588;BME280;10956;48.878;13.316;2023-03-31T07:27:28;93214.31;;;7.51;100.00
21588;BME280;10956;48.878;13.316;2023-03-31T07:29:54;93204.13;;;7.44;100.00
21588;BME280;10956;48.878;13.316;2023-03-31T07:32:19;93196.53;;;7.42;100.00
21588;BME280;10956;48.878;13.316;2023-03-31T07:34:46;93192.59;;;7.45;100.00
21588;BME280;10956;48.878;13.316;2023-03-31T07:37:11;93181.84;;;7.47;100.00
21588;BME280;10956;48.878;13.316;2023-03-31T07:39:37;93167.13;;;7.51;100.00
21588;BME280;10956;48.878;13.316;2023-03-31T07:42:02;93162.66;;;7.56;100.00
21588;BME280;10956;48.878;13.316;2023-03-31T07:44:28;93154.00;;;7.56;100.00
21588;BME280;10956;48.878;13.316;2023-03-31T07:46:53;93151.44;;;7.45;100.00
21588;BME280;10956;48.878;13.316;2023-03-31T07:49:18;93148.50;;;7.52;100.00
21588;BME280;10956;48.878;13.316;2023-03-31T07:51:44;93151.81;;;7.68;100.00
21588;BME280;10956;48.878;13.316;2023-03-31T07:54:09;93140.16;;;7.84;100.00
21588;BME280;10956;48.878;13.316;2023-03-31T07:56:34;93141.81;;;8.09;100.00
21588;BME280;10956;48.878;13.316;2023-03-31T07:59:00;93148.34;;;8.12;100.00
21588;BME280;10956;48.878;13.316;2023-03-31T08:01:25;93137.84;;;8.12;100.00
21588;BME280;10956;48.878;13.316;2023-03-31T08:03:53;93135.72;;;8.14;100.00
21588;BME280;10956;48.878;13.316;2023-03-31T08:06:21;93138.91;;;8.10;100.00
21588;BME280;10956;48.878;13.316;2023-03-31T08:08:48;93138.91;;;8.10;100.00
21588;BME280;10956;48.878;13.316;2023-03-31T08:11:15;93144.69;;;8.07;100.00
21588;BME280;10956;48.878;13.316;2023-03-31T08:13:40;93148.38;;;8.06;100.00
21588;BME280;10956;48.878;13.316;2023-03-31T08:16:06;93152.06;;;8.05;100.00
21588;BME280;10956;48.878;13.316;2023-03-31T08:18:31;93163.56;;;8.09;100.00
21588;BME280;10956;48.878;13.316;2023-03-31T08:20:57;93160.91;;;8.15;100.00
21588;BME280;10956;48.878;13.316;2023-03-31T08:23:22;93161.94;;;8.19;100.00
21588;BME280;10956;48.878;13.316;2023-03-31T08:25:47;93162.94;;;8.23;100.00
21588;BME280;10956;48.878;13.316;2023-03-31T08:28:13;93166.63;;;8.22;100.00
21588;BME280;10956;48.878;13.316;2023-03-31T08:30:39;93165.94;;;8.11;100.00
21588;BME280;10956;48.878;13.316;2023-03-31T08:33:05;93179.34;;;8.04;100.00
21588;BME280;10956;48.878;13.316;2023-03-31T08:35:35;93194.50;;;8.13;100.00
21588;BME280;10956;48.878;13.316;2023-03-31T08:38:00;93212.53;;;8.24;100.00
21588;BME280;10956;48.878;13.316;2023-03-31T08:40:28;93212.91;;;8.07;100.00
21588;BME280;10956;48.878;13.316;2023-03-31T08:42:58;93227.72;;;7.93;100.00
21588;BME280;10956;48.878;13.316;2023-03-31T08:45:30;93237.72;;;7.86;100.00
21588;BME280;10956;48.878;13.316;2023-03-31T08:48:05;93249.22;;;7.95;100.00
21588;BME280;10956;48.878;13.316;2023-03-31T08:50:44;93244.47;;;7.97;100.00
21588;BME280;10956;48.878;13.316;2023-03-31T08:53:27;93242.41;;;7.89;100.00
21588;BME280;10956;48.878;13.316;2023-03-31T08:55:56;93248.25;;;7.81;100.00
21588;BME280;10956;48.878;13.316;2023-03-31T08:58:33;93251.41;;;7.78;100.00
21588;BME280;10956;48.878;13.316;2023-03-31T09:01:32;93242.97;;;7.86;100.00
21588;BME280;10956;48.878;13.316;2023-03-31T09:12:09;93186.66;;;8.13;100.00
21588;BME280;10956;48.878;13.316;2023-03-31T09:15:01;93157.28;;;8.10;100.00
21588;BME280;10956;48.878;13.316;2023-03-31T09:18:00;93129.78;;;8.03;100.00
21588;BME280;10956;48.878;13.316;2023-03-31T09:20:33;93119.81;;;8.05;100.00
21588;BME280;10956;48.878;13.316;2023-03-31T09:25:39;93121.09;;;8.07;100.00
21588;BME280;10956;48.878;13.316;2023-03-31T09:28:32;93141.28;;;8.07;100.00
21588;BME280;10956;48.878;13.316;2023-03-31T09:30:59;93147.91;;;7.99;100.00
21588;BME280;10956;48.878;13.316;2023-03-31T09:33:29;93140.09;;;7.94;100.00
21588;BME280;10956;48.878;13.316;2023-03-31T09:35:58;93118.56;;;7.97;100.00
21588;BME280;10956;48.878;13.316;2023-03-31T09:38:24;93093.16;;;8.22;100.00
21588;BME280;10956;48.878;13.316;2023-03-31T09:40:55;93070.97;;;8.38;100.00
21588;BME280;10956;48.878;13.316;2023-03-31T09:43:23;93062.94;;;8.53;100.00
21588;BME280;10956;48.878;13.316;2023-03-31T09:45:49;93047.63;;;8.60;100.00
21588;BME280;10956;48.878;13.316;2023-03-31T09:48:29;93037.09;;;8.60;100.00
21588;BME280;10956;48.878;13.316;2023-03-31T09:51:03;93036.53;;;8.63;100.00
21588;BME280;10956;48.878;13.316;2023-03-31T09:53:48;93043.81;;;8.71;100.00
21588;BME280;10956;48.878;13.316;2023-03-31T09:56:44;93058.09;;;9.03;100.00
21588;BME280;10956;48.878;13.316;2023-03-31T09:59:19;93058.59;;;9.43;100.00
21588;BME280;10956;48.878;13.316;2023-03-31T10:01:48;93062.00;;;9.62;100.00
21588;BME280;10956;48.878;13.316;2023-03-31T10:04:26;93072.38;;;9.72;100.00
21588;BME280;10956;48.878;13.316;2023-03-31T10:06:54;93080.41;;;9.62;100.00
21588;BME280;10956;48.878;13.316;2023-03-31T10:09:24;93079.06;;;9.46;100.00
21588;BME280;10956;48.878;13.316;2023-03-31T10:11:55;93098.25;;;9.65;100.00
21588;BME280;10956;48.878;13.316;2023-03-31T10:14:32;93113.41;;;9.35;100.00
21588;BME280;10956;48.878;13.316;2023-03-31T10:17:03;93114.16;;;9.17;100.00
21588;BME280;10956;48.878;13.316;2023-03-31T10:19:35;93117.47;;;9.04;100.00
21588;BME280;10956;48.878;13.316;2023-03-31T10:22:13;93143.09;;;8.93;100.00
21588;BME280;10956;48.878;13.316;2023-03-31T10:24:42;93143.09;;;8.69;100.00
21588;BME280;10956;48.878;13.316;2023-03-31T10:27:20;93094.09;;;8.60;100.00
21588;BME280;10956;48.878;13.316;2023-03-31T10:29:47;93090.47;;;8.80;100.00
21588;BME280;10956;48.878;13.316;2023-03-31T10:32:29;93077.31;;;8.80;100.00
21588;BME280;10956;48.878;13.316;2023-03-31T10:34:58;93088.22;;;8.92;100.00
21588;BME280;10956;48.878;13.316;2023-03-31T10:37:26;93104.91;;;9.01;100.00
21588;BME280;10956;48.878;13.316;2023-03-31T10:40:04;93090.13;;;9.05;100.00
21588;BME280;10956;48.878;13.316;2023-03-31T10:42:37;93065.78;;;9.18;100.00
21588;BME280;10956;48.878;13.316;2023-03-31T10:45:12;93055.94;;;9.80;100.00
21588;BME280;10956;48.878;13.316;2023-03-31T10:47:39;93037.72;;;10.85;100.00
21588;BME280;10956;48.878;13.316;2023-03-31T10:52:47;93005.06;;;12.20;100.00
21588;BME280;10956;48.878;13.316;2023-03-31T10:55:26;93003.84;;;12.66;100.00
21588;BME280;10956;48.878;13.316;2023-03-31T10:58:37;93002.09;;;12.52;100.00
21588;BME280;10956;48.878;13.316;2023-03-31T11:12:15;93007.38;;;12.52;100.00
21588;BME280;10956;48.878;13.316;2023-03-31T11:14:58;92994.75;;;12.41;100.00
21588;BME280;10956;48.878;13.316;2023-03-31T11:22:45;92967.34;;;12.85;100.00
21588;BME280;10956;48.878;13.316;2023-03-31T11:25:22;92956.94;;;13.06;100.00
21588;BME280;10956;48.878;13.316;2023-03-31T11:31:04;92935.47;;;13.42;100.00
21588;BME280;10956;48.878;13.316;2023-03-31T11:39:51;92896.47;;;13.85;100.00
21588;BME280;10956;48.878;13.316;2023-03-31T11:42:26;92904.19;;;13.44;100.00
21588;BME280;10956;48.878;13.316;2023-03-31T11:45:01;92888.03;;;13.19;100.00
21588;BME280;10956;48.878;13.316;2023-03-31T11:47:30;92888.19;;;13.14;100.00
21588;BME280;10956;48.878;13.316;2023-03-31T11:50:13;92898.63;;;13.28;100.00
21588;BME280;10956;48.878;13.316;2023-03-31T11:52:44;92917.28;;;13.32;100.00
21588;BME280;10956;48.878;13.316;2023-03-31T11:55:17;92917.59;;;13.39;100.00
21588;BME280;10956;48.878;13.316;2023-03-31T12:00:19;92923.34;;;13.06;100.00
21588;BME280;10956;48.878;13.316;2023-03-31T12:02:51;92931.50;;;12.44;100.00
21588;BME280;10956;48.878;13.316;2023-03-31T12:05:20;92943.50;;;12.11;100.00
21588;BME280;10956;48.878;13.316;2023-03-31T12:10:28;92902.41;;;12.27;100.00
21588;BME280;10956;48.878;13.316;2023-03-31T12:15:56;92899.84;;;13.13;100.00
21588;BME280;10956;48.878;13.316;2023-03-31T12:18:28;92882.56;;;13.50;100.00
21588;BME280;10956;48.878;13.316;2023-03-31T12:21:01;92892.75;;;14.16;100.00
21588;BME280;10956;48.878;13.316;2023-03-31T12:23:32;92883.09;;;14.49;100.00
21588;BME280;10956;48.878;13.316;2023-03-31T12:26:16;92879.81;;;14.52;100.00
21588;BME280;10956;48.878;13.316;2023-03-31T12:28:49;92864.44;;;14.37;100.00
21588;BME280;10956;48.878;13.316;2023-03-31T12:31:20;92863.28;;;14.17;100.00
21588;BME280;10956;48.878;13.316;2023-03-31T12:33:59;92852.00;;;14.00;100.00
21588;BME280;10956;48.878;13.316;2023-03-31T12:37:01;92840.91;;;13.77;100.00
21588;BME280;10956;48.878;13.316;2023-03-31T12:39:43;92819.63;;;13.94;100.00
21588;BME280;10956;48.878;13.316;2023-03-31T12:45:00;92817.47;;;14.88;100.00
21588;BME280;10956;48.878;13.316;2023-03-31T12:47:39;92801.13;;;14.86;100.00
21588;BME280;10956;48.878;13.316;2023-03-31T13:08:59;92798.63;;;14.18;100.00
21588;BME280;10956;48.878;13.316;2023-03-31T13:16:27;92774.38;;;14.08;100.00
21588;BME280;10956;48.878;13.316;2023-03-31T13:18:53;92757.72;;;14.28;100.00
21588;BME280;10956;48.878;13.316;2023-03-31T13:21:19;92765.41;;;14.21;100.00
21588;BME280;10956;48.878;13.316;2023-03-31T13:23:45;92751.66;;;14.07;100.00
21588;BME280;10956;48.878;13.316;2023-03-31T13:34:39;92757.63;;;14.45;100.00
21588;BME280;10956;48.878;13.316;2023-03-31T13:37:30;92751.50;;;14.03;100.00
21588;BME280;10956;48.878;13.316;2023-03-31T13:42:52;92729.63;;;13.65;100.00
21588;BME280;10956;48.878;13.316;2023-03-31T13:48:28;92710.41;;;13.97;100.00
21588;BME280;10956;48.878;13.316;2023-03-31T13:57:01;92709.16;;;13.74;100.00
21588;BME280;10956;48.878;13.316;2023-03-31T14:02:44;92699.50;;;13.48;100.00
21588;BME280;10956;48.878;13.316;2023-03-31T14:05:49;92706.00;;;13.13;100.00
21588;BME280;10956;48.878;13.316;2023-03-31T14:08:35;92694.13;;;12.81;100.00
21588;BME280;10956;48.878;13.316;2023-03-31T14:11:24;92696.53;;;12.56;100.00
21588;BME280;10956;48.878;13.316;2023-03-31T14:14:02;92690.81;;;12.37;100.00
21588;BME280;10956;48.878;13.316;2023-03-31T14:16:30;92666.72;;;12.30;100.00
21588;BME280;10956;48.878;13.316;2023-03-31T14:22:27;92666.75;;;11.95;100.00
21588;BME280;10956;48.878;13.316;2023-03-31T14:25:15;92670.00;;;11.92;100.00
21588;BME280;10956;48.878;13.316;2023-03-31T14:28:43;92658.63;;;11.75;100.00
21588;BME280;10956;48.878;13.316;2023-03-31T14:31:04;92648.19;;;11.44;100.00
21588;BME280;10956;48.878;13.316;2023-03-31T14:36:35;92640.75;;;11.46;100.00
21588;BME280;10956;48.878;13.316;2023-03-31T14:39:08;92685.25;;;11.39;100.00
21588;BME280;10956;48.878;13.316;2023-03-31T14:41:35;92674.94;;;11.11;100.00
21588;BME280;10956;48.878;13.316;2023-03-31T14:44:04;92695.88;;;10.77;100.00
21588;BME280;10956;48.878;13.316;2023-03-31T14:46:32;92722.13;;;10.59;100.00
21588;BME280;10956;48.878;13.316;2023-03-31T14:49:18;92761.28;;;10.30;100.00
21588;BME280;10956;48.878;13.316;2023-03-31T14:51:44;92798.72;;;10.13;100.00
21588;BME280;10956;48.878;13.316;2023-03-31T14:54:18;92786.69;;;9.98;100.00
21588;BME280;10956;48.878;13.316;2023-03-31T14:56:50;92770.34;;;9.74;100.00
21588;BME280;10956;48.878;13.316;2023-03-31T14:59:27;92763.34;;;9.56;100.00
21588;BME280;10956;48.878;13.316;2023-03-31T15:01:55;92777.56;;;9.41;100.00
21588;BME280;10956;48.878;13.316;2023-03-31T15:04:25;92775.81;;;9.36;100.00
21588;BME280;10956;48.878;13.316;2023-03-31T15:06:51;92791.31;;;9.52;100.00
21588;BME280;10956;48.878;13.316;2023-03-31T15:09:24;92788.69;;;9.65;100.00
21588;BME280;10956;48.878;13.316;2023-03-31T15:11:59;92789.72;;;9.92;100.00
21588;BME280;10956;48.878;13.316;2023-03-31T15:14:39;92786.25;;;10.19;100.00
21588;BME280;10956;48.878;13.316;2023-03-31T15:17:18;92798.88;;;10.44;100.00
21588;BME280;10956;48.878;13.316;2023-03-31T15:19:44;92792.88;;;10.52;100.00
21588;BME280;10956;48.878;13.316;2023-03-31T15:22:13;92803.66;;;10.64;100.00
21588;BME280;10956;48.878;13.316;2023-03-31T15:24:38;92810.97;;;10.67;100.00
21588;BME280;10956;48.878;13.316;2023-03-31T15:27:07;92812.28;;;10.56;100.00
21588;BME280;10956;48.878;13.316;2023-03-31T15:29:37;92817.28;;;10.22;100.00